sensor_id;sensor_type;location;lat;lon;timestamp;P1;durP1;ratioP1;P2;durP2;ratioP2
76801;SDS011;66403;50.832;10.950;2023-03-24T00:01:49;3.13;;;1.92;;
76801;SDS011;66403;50.832;10.950;2023-03-24T00:06:50;3.47;;;1.80;;
76801;SDS011;66403;50.832;10.950;2023-03-24T00:11:51;2.88;;;1.90;;
76801;SDS011;66403;50.832;10.950;2023-03-24T00:16:51;2.85;;;1.75;;
76801;SDS011;66403;50.832;10.950;2023-03-24T00:21:53;2.22;;;1.55;;
76801;SDS011;66403;50.832;10.950;2023-03-24T00:26:55;3.38;;;1.85;;
76801;SDS011;66403;50.832;10.950;2023-03-24T00:31:56;3.88;;;2.00;;
76801;SDS011;66403;50.832;10.950;2023-03-24T00:36:57;2.40;;;1.80;;
76801;SDS011;66403;50.832;10.950;2023-03-24T00:41:57;3.65;;;1.90;;
76801;SDS011;66403;50.832;10.950;2023-03-24T00:47:00;3.03;;;1.98;;
76801;SDS011;66403;50.832;10.950;2023-03-24T00:52:01;3.25;;;1.75;;
76801;SDS011;66403;50.832;10.950;2023-03-24T00:57:09;4.40;;;2.00;;
76801;SDS011;66403;50.832;10.950;2023-03-24T01:02:11;4.50;;;1.75;;
76801;SDS011;66403;50.832;10.950;2023-03-24T01:07:13;2.28;;;1.55;;
76801;SDS011;66403;50.832;10.950;2023-03-24T01:12:18;1.63;;;1.52;;
76801;SDS011;66403;50.832;10.950;2023-03-24T01:17:19;2.78;;;2.10;;
76801;SDS011;66403;50.832;10.950;2023-03-24T01:22:21;3.22;;;1.70;;
76801;SDS011;66403;50.832;10.950;2023-03-24T01:27:26;4.93;;;2.55;;
76801;SDS011;66403;50.832;10.950;2023-03-24T01:32:28;2.95;;;1.95;;
76801;SDS011;66403;50.832;10.950;2023-03-24T01:37:28;3.45;;;1.77;;
76801;SDS011;66403;50.832;10.950;2023-03-24T01:42:29;5.32;;;1.98;;
76801;SDS011;66403;50.832;10.950;2023-03-24T01:47:29;5.07;;;2.00;;
76801;SDS011;66403;50.832;10.950;2023-03-24T01:52:30;3.10;;;1.90;;
76801;SDS011;66403;50.832;10.950;2023-03-24T01:57:43;2.72;;;1.85;;
76801;SDS011;66403;50.832;10.950;2023-03-24T02:02:54;3.08;;;1.95;;
76801;SDS011;66403;50.832;10.950;2023-03-24T02:08:04;3.42;;;1.98;;
76801;SDS011;66403;50.832;10.950;2023-03-24T02:13:23;2.17;;;1.65;;
76801;SDS011;66403;50.832;10.950;2023-03-24T02:18:39;3.80;;;1.63;;
76801;SDS011;66403;50.832;10.950;2023-03-24T02:45:26;2.45;;;1.67;;
76801;SDS011;66403;50.832;10.950;2023-03-24T02:55:42;5.43;;;1.92;;
76801;SDS011;66403;50.832;10.950;2023-03-24T03:00:47;2.42;;;1.67;;
76801;SDS011;66403;50.832;10.950;2023-03-24T03:06:47;2.08;;;1.63;;
76801;SDS011;66403;50.832;10.950;2023-03-24T03:11:40;1.88;;;1.42;;
76801;SDS011;66403;50.832;10.950;2023-03-24T03:16:46;1.70;;;1.23;;
76801;SDS011;66403;50.832;10.950;2023-03-24T03:21:52;1.90;;;1.02;;
76801;SDS011;66403;50.832;10.950;2023-03-24T03:26:54;2.75;;;1.00;;
76801;SDS011;66403;50.832;10.950;2023-03-24T03:32:01;2.15;;;1.17;;
76801;SDS011;66403;50.832;10.950;2023-03-24T03:37:08;2.15;;;1.65;;
76801;SDS011;66403;50.832;10.950;2023-03-24T03:42:29;3.03;;;1.58;;
76801;SDS011;66403;50.832;10.950;2023-03-24T03:47:30;2.05;;;1.35;;
76801;SDS011;66403;50.832;10.950;2023-03-24T03:52:31;2.10;;;1.35;;
76801;SDS011;66403;50.832;10.950;2023-03-24T03:57:32;5.05;;;1.75;;
76801;SDS011;66403;50.832;10.950;2023-03-24T04:02:48;2.40;;;1.58;;
76801;SDS011;66403;50.832;10.950;2023-03-24T04:13:43;3.20;;;1.50;;
76801;SDS011;66403;50.832;10.950;2023-03-24T04:24:36;3.15;;;2.05;;
76801;SDS011;66403;50.832;10.950;2023-03-24T04:35:09;3.85;;;1.98;;
76801;SDS011;66403;50.832;10.950;2023-03-24T04:40:34;3.08;;;2.10;;
76801;SDS011;66403;50.832;10.950;2023-03-24T04:45:36;2.72;;;1.85;;
76801;SDS011;66403;50.832;10.950;2023-03-24T04:50:40;2.70;;;1.63;;
76801;SDS011;66403;50.832;10.950;2023-03-24T04:56:01;3.25;;;1.95;;
76801;SDS011;66403;50.832;10.950;2023-03-24T05:01:24;2.17;;;1.80;;
76801;SDS011;66403;50.832;10.950;2023-03-24T05:06:49;2.83;;;1.88;;
76801;SDS011;66403;50.832;10.950;2023-03-24T05:11:52;3.35;;;2.05;;
76801;SDS011;66403;50.832;10.950;2023-03-24T05:16:55;2.67;;;1.73;;
76801;SDS011;66403;50.832;10.950;2023-03-24T05:21:57;3.35;;;1.67;;
76801;SDS011;66403;50.832;10.950;2023-03-24T05:26:58;4.55;;;2.50;;
76801;SDS011;66403;50.832;10.950;2023-03-24T05:31:59;2.55;;;1.63;;
76801;SDS011;66403;50.832;10.950;2023-03-24T05:36:59;2.90;;;1.85;;
76801;SDS011;66403;50.832;10.950;2023-03-24T05:42:00;3.03;;;1.70;;
76801;SDS011;66403;50.832;10.950;2023-03-24T05:47:01;1.75;;;1.23;;
76801;SDS011;66403;50.832;10.950;2023-03-24T05:52:02;3.67;;;1.73;;
76801;SDS011;66403;50.832;10.950;2023-03-24T05:57:03;4.00;;;1.73;;
76801;SDS011;66403;50.832;10.950;2023-03-24T06:02:06;3.13;;;1.83;;
76801;SDS011;66403;50.832;10.950;2023-03-24T06:07:33;3.10;;;1.75;;
76801;SDS011;66403;50.832;10.950;2023-03-24T06:12:33;2.30;;;1.50;;
76801;SDS011;66403;50.832;10.950;2023-03-24T06:17:36;3.13;;;2.00;;
76801;SDS011;66403;50.832;10.950;2023-03-24T06:22:43;2.47;;;1.80;;
76801;SDS011;66403;50.832;10.950;2023-03-24T06:27:49;3.85;;;1.98;;
76801;SDS011;66403;50.832;10.950;2023-03-24T06:32:55;2.28;;;1.85;;
76801;SDS011;66403;50.832;10.950;2023-03-24T06:37:56;2.65;;;2.00;;
76801;SDS011;66403;50.832;10.950;2023-03-24T06:42:57;3.30;;;1.90;;
76801;SDS011;66403;50.832;10.950;2023-03-24T06:47:57;2.08;;;1.48;;
76801;SDS011;66403;50.832;10.950;2023-03-24T06:52:59;2.47;;;1.83;;
76801;SDS011;66403;50.832;10.950;2023-03-24T06:58:02;3.35;;;1.58;;
76801;SDS011;66403;50.832;10.950;2023-03-24T07:03:09;2.25;;;1.52;;
76801;SDS011;66403;50.832;10.950;2023-03-24T07:08:12;1.85;;;1.40;;
76801;SDS011;66403;50.832;10.950;2023-03-24T07:13:16;2.72;;;1.60;;
76801;SDS011;66403;50.832;10.950;2023-03-24T07:18:16;1.75;;;0.90;;
76801;SDS011;66403;50.832;10.950;2023-03-24T07:23:21;5.13;;;1.27;;
76801;SDS011;66403;50.832;10.950;2023-03-24T07:28:29;2.00;;;1.38;;
76801;SDS011;66403;50.832;10.950;2023-03-24T07:33:30;2.97;;;1.20;;
76801;SDS011;66403;50.832;10.950;2023-03-24T07:38:30;1.27;;;1.10;;
76801;SDS011;66403;50.832;10.950;2023-03-24T07:43:37;1.40;;;1.13;;
76801;SDS011;66403;50.832;10.950;2023-03-24T07:48:51;3.67;;;1.88;;
76801;SDS011;66403;50.832;10.950;2023-03-24T07:53:52;1.33;;;0.98;;
76801;SDS011;66403;50.832;10.950;2023-03-24T07:59:05;3.15;;;1.63;;
76801;SDS011;66403;50.832;10.950;2023-03-24T08:04:26;1.40;;;0.80;;
76801;SDS011;66403;50.832;10.950;2023-03-24T08:09:30;1.48;;;0.70;;
76801;SDS011;66403;50.832;10.950;2023-03-24T08:14:30;1.77;;;1.00;;
76801;SDS011;66403;50.832;10.950;2023-03-24T08:19:31;0.98;;;0.80;;
76801;SDS011;66403;50.832;10.950;2023-03-24T08:24:31;1.25;;;1.15;;
76801;SDS011;66403;50.832;10.950;2023-03-24T08:29:32;1.23;;;1.00;;
76801;SDS011;66403;50.832;10.950;2023-03-24T08:34:33;1.60;;;0.65;;
76801;SDS011;66403;50.832;10.950;2023-03-24T08:39:34;1.25;;;1.15;;
76801;SDS011;66403;50.832;10.950;2023-03-24T08:44:34;1.33;;;1.13;;
76801;SDS011;66403;50.832;10.950;2023-03-24T08:49:35;1.65;;;1.08;;
76801;SDS011;66403;50.832;10.950;2023-03-24T08:54:36;0.82;;;0.80;;
76801;SDS011;66403;50.832;10.950;2023-03-24T08:59:36;1.20;;;0.88;;
76801;SDS011;66403;50.832;10.950;2023-03-24T09:04:37;0.60;;;0.60;;
76801;SDS011;66403;50.832;10.950;2023-03-24T09:09:37;3.33;;;1.10;;
76801;SDS011;66403;50.832;10.950;2023-03-24T09:14:38;1.33;;;0.70;;
76801;SDS011;66403;50.832;10.950;2023-03-24T09:19:39;1.70;;;0.97;;
76801;SDS011;66403;50.832;10.950;2023-03-24T09:24:39;0.73;;;0.52;;
76801;SDS011;66403;50.832;10.950;2023-03-24T09:29:40;0.83;;;0.63;;
76801;SDS011;66403;50.832;10.950;2023-03-24T09:34:41;2.03;;;1.25;;
76801;SDS011;66403;50.832;10.950;2023-03-24T09:39:41;0.52;;;0.52;;
76801;SDS011;66403;50.832;10.950;2023-03-24T09:44:42;0.70;;;0.70;;
76801;SDS011;66403;50.832;10.950;2023-03-24T09:49:46;0.70;;;0.70;;
76801;SDS011;66403;50.832;10.950;2023-03-24T09:54:57;0.85;;;0.68;;
76801;SDS011;66403;50.832;10.950;2023-03-24T09:59:57;0.90;;;0.50;;
76801;SDS011;66403;50.832;10.950;2023-03-24T10:04:58;0.95;;;0.75;;
76801;SDS011;66403;50.832;10.950;2023-03-24T10:09:59;1.33;;;0.70;;
76801;SDS011;66403;50.832;10.950;2023-03-24T10:20:34;0.80;;;0.65;;
76801;SDS011;66403;50.832;10.950;2023-03-24T10:25:55;0.60;;;0.60;;
76801;SDS011;66403;50.832;10.950;2023-03-24T10:31:04;0.82;;;0.57;;
76801;SDS011;66403;50.832;10.950;2023-03-24T10:36:15;0.95;;;0.63;;
76801;SDS011;66403;50.832;10.950;2023-03-24T10:41:18;0.68;;;0.50;;
76801;SDS011;66403;50.832;10.950;2023-03-24T10:46:21;0.82;;;0.65;;
76801;SDS011;66403;50.832;10.950;2023-03-24T10:51:30;1.02;;;0.70;;
76801;SDS011;66403;50.832;10.950;2023-03-24T10:56:41;1.02;;;0.52;;
76801;SDS011;66403;50.832;10.950;2023-03-24T11:01:45;0.52;;;0.52;;
76801;SDS011;66403;50.832;10.950;2023-03-24T11:06:58;1.67;;;0.60;;
76801;SDS011;66403;50.832;10.950;2023-03-24T11:12:01;0.65;;;0.50;;
76801;SDS011;66403;50.832;10.950;2023-03-24T11:17:09;0.68;;;0.50;;
76801;SDS011;66403;50.832;10.950;2023-03-24T11:22:11;0.70;;;0.50;;
76801;SDS011;66403;50.832;10.950;2023-03-24T11:27:12;1.40;;;0.60;;
76801;SDS011;66403;50.832;10.950;2023-03-24T11:32:18;3.00;;;0.43;;
76801;SDS011;66403;50.832;10.950;2023-03-24T11:37:22;0.28;;;0.28;;
76801;SDS011;66403;50.832;10.950;2023-03-24T11:42:25;0.60;;;0.40;;
76801;SDS011;66403;50.832;10.950;2023-03-24T11:47:28;1.38;;;0.93;;
76801;SDS011;66403;50.832;10.950;2023-03-24T11:52:31;1.77;;;1.63;;
76801;SDS011;66403;50.832;10.950;2023-03-24T11:57:46;2.70;;;1.70;;
76801;SDS011;66403;50.832;10.950;2023-03-24T12:03:00;2.20;;;0.95;;
76801;SDS011;66403;50.832;10.950;2023-03-24T12:13:43;1.45;;;0.50;;
76801;SDS011;66403;50.832;10.950;2023-03-24T12:30:25;0.57;;;0.45;;
76801;SDS011;66403;50.832;10.950;2023-03-24T12:35:18;1.23;;;0.40;;
76801;SDS011;66403;50.832;10.950;2023-03-24T12:45:47;1.05;;;0.60;;
76801;SDS011;66403;50.832;10.950;2023-03-24T12:51:02;0.90;;;0.40;;
76801;SDS011;66403;50.832;10.950;2023-03-24T12:56:08;1.15;;;0.60;;
76801;SDS011;66403;50.832;10.950;2023-03-24T13:01:24;1.30;;;0.60;;
76801;SDS011;66403;50.832;10.950;2023-03-24T13:06:29;0.70;;;0.30;;
76801;SDS011;66403;50.832;10.950;2023-03-24T13:11:35;5.68;;;0.70;;
76801;SDS011;66403;50.832;10.950;2023-03-24T13:16:40;1.42;;;0.40;;
76801;SDS011;66403;50.832;10.950;2023-03-24T13:21:42;1.52;;;0.40;;
76801;SDS011;66403;50.832;10.950;2023-03-24T13:26:49;2.80;;;1.27;;
76801;SDS011;66403;50.832;10.950;2023-03-24T13:32:02;1.38;;;0.50;;
76801;SDS011;66403;50.832;10.950;2023-03-24T13:37:51;3.17;;;0.57;;
76801;SDS011;66403;50.832;10.950;2023-03-24T13:42:41;2.55;;;0.52;;
76801;SDS011;66403;50.832;10.950;2023-03-24T13:47:47;1.10;;;0.75;;
76801;SDS011;66403;50.832;10.950;2023-03-24T13:52:49;2.33;;;0.55;;
76801;SDS011;66403;50.832;10.950;2023-03-24T13:57:57;0.77;;;0.43;;
76801;SDS011;66403;50.832;10.950;2023-03-24T14:23:25;3.40;;;0.80;;
76801;SDS011;66403;50.832;10.950;2023-03-24T14:28:38;0.82;;;0.50;;
76801;SDS011;66403;50.832;10.950;2023-03-24T14:38:51;1.17;;;0.52;;
76801;SDS011;66403;50.832;10.950;2023-03-24T14:43:53;1.87;;;0.73;;
76801;SDS011;66403;50.832;10.950;2023-03-24T14:49:00;1.63;;;0.60;;
76801;SDS011;66403;50.832;10.950;2023-03-24T14:54:04;1.58;;;1.08;;
76801;SDS011;66403;50.832;10.950;2023-03-24T14:59:18;1.23;;;0.80;;
76801;SDS011;66403;50.832;10.950;2023-03-24T15:04:26;2.88;;;0.70;;
76801;SDS011;66403;50.832;10.950;2023-03-24T15:09:27;1.50;;;0.52;;
76801;SDS011;66403;50.832;10.950;2023-03-24T15:14:27;5.13;;;1.07;;
76801;SDS011;66403;50.832;10.950;2023-03-24T15:19:28;1.90;;;0.50;;
76801;SDS011;66403;50.832;10.950;2023-03-24T15:24:30;2.25;;;0.65;;
76801;SDS011;66403;50.832;10.950;2023-03-24T15:29:33;2.92;;;0.80;;
76801;SDS011;66403;50.832;10.950;2023-03-24T15:34:41;3.10;;;0.65;;
76801;SDS011;66403;50.832;10.950;2023-03-24T15:39:47;1.63;;;0.70;;
76801;SDS011;66403;50.832;10.950;2023-03-24T15:44:49;2.85;;;0.77;;
76801;SDS011;66403;50.832;10.950;2023-03-24T15:54:54;1.42;;;0.88;;
76801;SDS011;66403;50.832;10.950;2023-03-24T16:04:58;4.93;;;1.00;;
76801;SDS011;66403;50.832;10.950;2023-03-24T16:10:01;2.45;;;1.23;;
76801;SDS011;66403;50.832;10.950;2023-03-24T16:15:04;1.58;;;0.70;;
76801;SDS011;66403;50.832;10.950;2023-03-24T16:20:08;1.65;;;0.60;;
76801;SDS011;66403;50.832;10.950;2023-03-24T16:25:22;3.33;;;0.95;;
76801;SDS011;66403;50.832;10.950;2023-03-24T16:30:23;2.42;;;0.63;;
76801;SDS011;66403;50.832;10.950;2023-03-24T16:35:24;2.40;;;0.73;;
76801;SDS011;66403;50.832;10.950;2023-03-24T16:40:36;1.33;;;0.60;;
76801;SDS011;66403;50.832;10.950;2023-03-24T16:45:38;2.47;;;0.85;;
76801;SDS011;66403;50.832;10.950;2023-03-24T16:50:40;1.73;;;0.52;;
76801;SDS011;66403;50.832;10.950;2023-03-24T16:55:41;9.63;;;5.35;;
76801;SDS011;66403;50.832;10.950;2023-03-24T17:00:43;2.42;;;1.05;;
76801;SDS011;66403;50.832;10.950;2023-03-24T17:05:45;3.75;;;1.10;;
76801;SDS011;66403;50.832;10.950;2023-03-24T17:10:48;1.55;;;0.77;;
76801;SDS011;66403;50.832;10.950;2023-03-24T17:15:51;1.83;;;0.88;;
76801;SDS011;66403;50.832;10.950;2023-03-24T17:20:51;3.05;;;0.85;;
76801;SDS011;66403;50.832;10.950;2023-03-24T17:25:52;2.92;;;1.10;;
76801;SDS011;66403;50.832;10.950;2023-03-24T17:30:53;2.75;;;0.95;;
76801;SDS011;66403;50.832;10.950;2023-03-24T17:35:53;1.63;;;0.55;;
76801;SDS011;66403;50.832;10.950;2023-03-24T17:40:58;3.15;;;0.60;;
76801;SDS011;66403;50.832;10.950;2023-03-24T17:46:00;3.58;;;0.70;;
76801;SDS011;66403;50.832;10.950;2023-03-24T17:51:01;2.17;;;0.65;;
76801;SDS011;66403;50.832;10.950;2023-03-24T17:56:02;4.03;;;0.75;;
76801;SDS011;66403;50.832;10.950;2023-03-24T18:01:06;2.50;;;0.90;;
76801;SDS011;66403;50.832;10.950;2023-03-24T18:06:07;1.35;;;1.02;;
76801;SDS011;66403;50.832;10.950;2023-03-24T18:11:09;3.08;;;1.08;;
76801;SDS011;66403;50.832;10.950;2023-03-24T18:16:11;1.70;;;0.70;;
76801;SDS011;66403;50.832;10.950;2023-03-24T18:21:12;2.05;;;0.60;;
76801;SDS011;66403;50.832;10.950;2023-03-24T18:26:13;1.50;;;1.08;;
76801;SDS011;66403;50.832;10.950;2023-03-24T18:31:15;4.97;;;1.73;;
76801;SDS011;66403;50.832;10.950;2023-03-24T18:36:19;3.70;;;1.50;;
76801;SDS011;66403;50.832;10.950;2023-03-24T18:41:20;2.67;;;0.93;;
76801;SDS011;66403;50.832;10.950;2023-03-24T18:46:23;4.28;;;1.20;;
76801;SDS011;66403;50.832;10.950;2023-03-24T18:51:25;2.53;;;1.00;;
76801;SDS011;66403;50.832;10.950;2023-03-24T18:56:26;2.35;;;1.20;;
76801;SDS011;66403;50.832;10.950;2023-03-24T19:01:26;2.92;;;1.00;;
76801;SDS011;66403;50.832;10.950;2023-03-24T19:06:29;3.17;;;1.50;;
76801;SDS011;66403;50.832;10.950;2023-03-24T19:11:30;1.80;;;1.23;;
76801;SDS011;66403;50.832;10.950;2023-03-24T19:16:30;5.43;;;2.10;;
76801;SDS011;66403;50.832;10.950;2023-03-24T19:21:31;3.28;;;2.00;;
76801;SDS011;66403;50.832;10.950;2023-03-24T19:26:32;3.60;;;1.80;;
76801;SDS011;66403;50.832;10.950;2023-03-24T19:31:33;3.33;;;1.58;;
76801;SDS011;66403;50.832;10.950;2023-03-24T19:36:34;0.93;;;0.73;;
76801;SDS011;66403;50.832;10.950;2023-03-24T19:41:34;3.33;;;1.17;;
76801;SDS011;66403;50.832;10.950;2023-03-24T19:46:34;2.13;;;1.23;;
76801;SDS011;66403;50.832;10.950;2023-03-24T19:51:35;2.53;;;1.20;;
76801;SDS011;66403;50.832;10.950;2023-03-24T19:56:35;1.23;;;0.80;;
76801;SDS011;66403;50.832;10.950;2023-03-24T20:01:36;2.80;;;1.05;;
76801;SDS011;66403;50.832;10.950;2023-03-24T20:06:37;4.47;;;1.73;;
76801;SDS011;66403;50.832;10.950;2023-03-24T20:11:37;2.15;;;1.17;;
76801;SDS011;66403;50.832;10.950;2023-03-24T20:16:40;5.13;;;2.00;;
76801;SDS011;66403;50.832;10.950;2023-03-24T20:21:41;3.13;;;1.38;;
76801;SDS011;66403;50.832;10.950;2023-03-24T20:26:42;1.92;;;1.23;;
76801;SDS011;66403;50.832;10.950;2023-03-24T20:31:42;2.58;;;1.10;;
76801;SDS011;66403;50.832;10.950;2023-03-24T20:36:43;4.47;;;2.03;;
76801;SDS011;66403;50.832;10.950;2023-03-24T20:41:44;4.30;;;1.67;;
76801;SDS011;66403;50.832;10.950;2023-03-24T20:46:45;3.10;;;1.10;;
76801;SDS011;66403;50.832;10.950;2023-03-24T20:51:45;3.70;;;1.20;;
76801;SDS011;66403;50.832;10.950;2023-03-24T20:56:48;2.78;;;1.67;;
76801;SDS011;66403;50.832;10.950;2023-03-24T21:01:51;5.10;;;1.40;;
76801;SDS011;66403;50.832;10.950;2023-03-24T21:06:51;1.23;;;0.80;;
76801;SDS011;66403;50.832;10.950;2023-03-24T21:11:56;3.88;;;1.30;;
76801;SDS011;66403;50.832;10.950;2023-03-24T21:16:57;2.42;;;1.25;;
76801;SDS011;66403;50.832;10.950;2023-03-24T21:22:00;3.00;;;1.48;;
76801;SDS011;66403;50.832;10.950;2023-03-24T21:27:02;1.70;;;0.82;;
76801;SDS011;66403;50.832;10.950;2023-03-24T21:32:02;1.23;;;0.60;;
76801;SDS011;66403;50.832;10.950;2023-03-24T21:37:03;1.90;;;0.80;;
76801;SDS011;66403;50.832;10.950;2023-03-24T21:42:03;2.88;;;0.85;;
76801;SDS011;66403;50.832;10.950;2023-03-24T21:47:05;1.98;;;0.80;;
76801;SDS011;66403;50.832;10.950;2023-03-24T21:52:07;2.40;;;0.80;;
76801;SDS011;66403;50.832;10.950;2023-03-24T21:57:07;1.17;;;0.80;;
76801;SDS011;66403;50.832;10.950;2023-03-24T22:02:12;2.65;;;0.95;;
76801;SDS011;66403;50.832;10.950;2023-03-24T22:07:13;2.92;;;1.05;;
76801;SDS011;66403;50.832;10.950;2023-03-24T22:12:15;0.50;;;0.40;;
76801;SDS011;66403;50.832;10.950;2023-03-24T22:17:16;1.80;;;0.45;;
76801;SDS011;66403;50.832;10.950;2023-03-24T22:22:16;1.85;;;0.32;;
76801;SDS011;66403;50.832;10.950;2023-03-24T22:27:17;0.40;;;0.30;;
76801;SDS011;66403;50.832;10.950;2023-03-24T22:32:17;1.42;;;0.40;;
76801;SDS011;66403;50.832;10.950;2023-03-24T22:37:18;1.27;;;0.65;;
76801;SDS011;66403;50.832;10.950;2023-03-24T22:42:18;1.77;;;0.57;;
76801;SDS011;66403;50.832;10.950;2023-03-24T22:47:19;0.50;;;0.40;;
76801;SDS011;66403;50.832;10.950;2023-03-24T22:52:20;2.53;;;0.60;;
76801;SDS011;66403;50.832;10.950;2023-03-24T22:57:20;1.17;;;0.30;;
76801;SDS011;66403;50.832;10.950;2023-03-24T23:02:21;0.40;;;0.30;;
76801;SDS011;66403;50.832;10.950;2023-03-24T23:07:23;3.03;;;0.47;;
76801;SDS011;66403;50.832;10.950;2023-03-24T23:12:27;1.95;;;0.65;;
76801;SDS011;66403;50.832;10.950;2023-03-24T23:17:28;3.33;;;0.65;;
76801;SDS011;66403;50.832;10.950;2023-03-24T23:22:29;1.88;;;0.88;;
76801;SDS011;66403;50.832;10.950;2023-03-24T23:27:34;0.88;;;0.30;;
76801;SDS011;66403;50.832;10.950;2023-03-24T23:32:35;0.70;;;0.40;;
76801;SDS011;66403;50.832;10.950;2023-03-24T23:37:36;1.40;;;0.73;;
76801;SDS011;66403;50.832;10.950;2023-03-24T23:42:42;2.38;;;0.50;;
76801;SDS011;66403;50.832;10.950;2023-03-24T23:47:47;1.48;;;0.40;;
76801;SDS011;66403;50.832;10.950;2023-03-24T23:52:48;3.25;;;0.57;;
76801;SDS011;66403;50.832;10.950;2023-03-24T23:57:48;2.30;;;0.75;;
